sensor_id;sensor_type;location;lat;lon;timestamp;pressure;altitude;pressure_sealevel;temperature;humidity
63006;BME280;53704;52.532;6.426;2024-01-15T00:01:59;100113.06;;;-0.40;100.00
63006;BME280;53704;52.532;6.426;2024-01-15T00:04:24;100112.38;;;-0.30;100.00
63006;BME280;53704;52.532;6.426;2024-01-15T00:06:50;100103.50;;;-0.29;100.00
63006;BME280;53704;52.532;6.426;2024-01-15T00:09:15;100103.97;;;-0.35;100.00
63006;BME280;53704;52.532;6.426;2024-01-15T00:11:42;100093.59;;;-0.39;100.00
63006;BME280;53704;52.532;6.426;2024-01-15T00:14:08;100093.16;;;-0.32;100.00
63006;BME280;53704;52.532;6.426;2024-01-15T00:16:34;100102.38;;;-0.38;100.00
63006;BME280;53704;52.532;6.426;2024-01-15T00:18:59;100090.63;;;-0.34;100.00
63006;BME280;53704;52.532;6.426;2024-01-15T00:21:25;100092.53;;;-0.36;100.00
63006;BME280;53704;52.532;6.426;2024-01-15T00:23:50;100086.38;;;-0.37;100.00
63006;BME280;53704;52.532;6.426;2024-01-15T00:26:16;100092.50;;;-0.23;100.00
63006;BME280;53704;52.532;6.426;2024-01-15T00:28:41;100084.28;;;-0.31;100.00
63006;BME280;53704;52.532;6.426;2024-01-15T00:31:07;100078.13;;;-0.32;100.00
63006;BME280;53704;52.532;6.426;2024-01-15T00:33:32;100068.50;;;-0.33;100.00
63006;BME280;53704;52.532;6.426;2024-01-15T00:35:58;100071.50;;;-0.38;100.00
63006;BME280;53704;52.532;6.426;2024-01-15T00:38:23;100068.28;;;-0.30;100.00
63006;BME280;53704;52.532;6.426;2024-01-15T00:40:49;100066.03;;;-0.23;100.00
63006;BME280;53704;52.532;6.426;2024-01-15T00:43:14;100069.13;;;-0.29;100.00
63006;BME280;53704;52.532;6.426;2024-01-15T00:45:40;100058.94;;;-0.23;100.00
63006;BME280;53704;52.532;6.426;2024-01-15T00:48:06;100059.09;;;-0.37;100.00
63006;BME280;53704;52.532;6.426;2024-01-15T00:50:31;100049.19;;;-0.46;100.00
63006;BME280;53704;52.532;6.426;2024-01-15T00:52:57;100052.41;;;-0.54;100.00
63006;BME280;53704;52.532;6.426;2024-01-15T00:55:22;100053.91;;;-0.63;100.00
63006;BME280;53704;52.532;6.426;2024-01-15T00:57:47;100057.72;;;-0.67;100.00
63006;BME280;53704;52.532;6.426;2024-01-15T01:00:13;100045.88;;;-0.61;100.00
63006;BME280;53704;52.532;6.426;2024-01-15T01:02:39;100045.88;;;-0.61;100.00
63006;BME280;53704;52.532;6.426;2024-01-15T01:05:04;100052.22;;;-0.64;100.00
63006;BME280;53704;52.532;6.426;2024-01-15T01:07:30;100040.81;;;-0.64;100.00
63006;BME280;53704;52.532;6.426;2024-01-15T01:09:55;100038.16;;;-0.64;100.00
63006;BME280;53704;52.532;6.426;2024-01-15T01:12:20;100035.69;;;-0.55;100.00
63006;BME280;53704;52.532;6.426;2024-01-15T01:14:46;100037.22;;;-0.63;100.00
63006;BME280;53704;52.532;6.426;2024-01-15T01:17:11;100036.97;;;-0.60;100.00
63006;BME280;53704;52.532;6.426;2024-01-15T01:19:37;100034.22;;;-0.59;100.00
63006;BME280;53704;52.532;6.426;2024-01-15T01:22:02;100028.09;;;-0.59;100.00
63006;BME280;53704;52.532;6.426;2024-01-15T01:24:27;100029.16;;;-0.62;100.00
63006;BME280;53704;52.532;6.426;2024-01-15T01:26:53;100018.78;;;-0.52;100.00
63006;BME280;53704;52.532;6.426;2024-01-15T01:29:18;100022.59;;;-0.56;100.00
63006;BME280;53704;52.532;6.426;2024-01-15T01:31:44;100020.94;;;-0.70;100.00
63006;BME280;53704;52.532;6.426;2024-01-15T01:34:10;100022.75;;;-0.46;100.00
63006;BME280;53704;52.532;6.426;2024-01-15T01:36:36;100028.59;;;-0.54;100.00
63006;BME280;53704;52.532;6.426;2024-01-15T01:39:01;100029.78;;;-0.58;100.00
63006;BME280;53704;52.532;6.426;2024-01-15T01:41:26;100031.13;;;-0.52;100.00
63006;BME280;53704;52.532;6.426;2024-01-15T01:43:52;100030.03;;;-0.61;100.00
63006;BME280;53704;52.532;6.426;2024-01-15T01:46:18;100027.88;;;-0.56;100.00
63006;BME280;53704;52.532;6.426;2024-01-15T01:48:43;100026.19;;;-0.57;100.00
63006;BME280;53704;52.532;6.426;2024-01-15T01:51:09;100028.03;;;-0.46;100.00
63006;BME280;53704;52.532;6.426;2024-01-15T01:53:36;100021.69;;;-0.44;100.00
63006;BME280;53704;52.532;6.426;2024-01-15T01:56:03;100019.31;;;-0.35;100.00
63006;BME280;53704;52.532;6.426;2024-01-15T01:58:30;100012.06;;;-0.45;100.00
63006;BME280;53704;52.532;6.426;2024-01-15T02:00:57;100007.28;;;-0.40;100.00
63006;BME280;53704;52.532;6.426;2024-01-15T02:03:24;99998.84;;;-0.45;100.00
63006;BME280;53704;52.532;6.426;2024-01-15T02:05:50;100004.88;;;-0.67;100.00
63006;BME280;53704;52.532;6.426;2024-01-15T02:08:16;100000.03;;;-0.73;100.00
63006;BME280;53704;52.532;6.426;2024-01-15T02:10:42;100004.81;;;-0.54;100.00
63006;BME280;53704;52.532;6.426;2024-01-15T02:13:07;100008.81;;;-0.48;100.00
63006;BME280;53704;52.532;6.426;2024-01-15T02:15:32;100012.81;;;-0.43;100.00
63006;BME280;53704;52.532;6.426;2024-01-15T02:20:24;100029.03;;;-0.47;100.00
63006;BME280;53704;52.532;6.426;2024-01-15T02:22:49;100057.41;;;-0.38;100.00
63006;BME280;53704;52.532;6.426;2024-01-15T02:25:15;100057.19;;;-0.35;100.00
63006;BME280;53704;52.532;6.426;2024-01-15T02:27:40;100043.16;;;-0.24;100.00
63006;BME280;53704;52.532;6.426;2024-01-15T02:30:08;100033.47;;;-0.24;100.00
63006;BME280;53704;52.532;6.426;2024-01-15T02:32:34;100032.59;;;-0.24;100.00
63006;BME280;53704;52.532;6.426;2024-01-15T02:35:00;100024.13;;;-0.05;100.00
63006;BME280;53704;52.532;6.426;2024-01-15T02:37:25;100021.59;;;-0.07;100.00
63006;BME280;53704;52.532;6.426;2024-01-15T02:39:50;100011.00;;;-0.07;100.00
63006;BME280;53704;52.532;6.426;2024-01-15T02:42:16;100018.78;;;-0.16;100.00
63006;BME280;53704;52.532;6.426;2024-01-15T02:44:41;100013.44;;;-0.04;100.00
63006;BME280;53704;52.532;6.426;2024-01-15T02:47:07;100005.13;;;-0.10;100.00
63006;BME280;53704;52.532;6.426;2024-01-15T02:49:32;100007.66;;;0.03;100.00
63006;BME280;53704;52.532;6.426;2024-01-15T02:51:57;100018.13;;;-0.07;100.00
63006;BME280;53704;52.532;6.426;2024-01-15T02:54:23;100034.06;;;-0.20;100.00
63006;BME280;53704;52.532;6.426;2024-01-15T02:56:48;100056.06;;;-0.20;100.00
63006;BME280;53704;52.532;6.426;2024-01-15T02:59:14;100060.75;;;-0.23;100.00
63006;BME280;53704;52.532;6.426;2024-01-15T03:01:39;100060.97;;;-0.26;100.00
63006;BME280;53704;52.532;6.426;2024-01-15T03:04:04;100072.00;;;-0.32;100.00
63006;BME280;53704;52.532;6.426;2024-01-15T03:06:30;100061.91;;;-0.51;100.00
63006;BME280;53704;52.532;6.426;2024-01-15T03:08:55;100058.59;;;-0.42;100.00
63006;BME280;53704;52.532;6.426;2024-01-15T03:11:20;100063.56;;;-0.38;100.00
63006;BME280;53704;52.532;6.426;2024-01-15T03:13:46;100061.47;;;-0.45;100.00
63006;BME280;53704;52.532;6.426;2024-01-15T03:16:11;100050.66;;;-0.42;100.00
63006;BME280;53704;52.532;6.426;2024-01-15T03:18:36;100037.50;;;-0.55;100.00
63006;BME280;53704;52.532;6.426;2024-01-15T03:21:02;100045.78;;;-0.35;100.00
63006;BME280;53704;52.532;6.426;2024-01-15T03:23:27;100033.72;;;-0.40;100.00
63006;BME280;53704;52.532;6.426;2024-01-15T03:25:53;100031.19;;;-0.41;100.00
63006;BME280;53704;52.532;6.426;2024-01-15T03:28:18;100035.41;;;-0.39;100.00
63006;BME280;53704;52.532;6.426;2024-01-15T03:30:44;100033.72;;;-0.40;100.00
63006;BME280;53704;52.532;6.426;2024-01-15T03:33:09;100027.97;;;-0.33;100.00
63006;BME280;53704;52.532;6.426;2024-01-15T03:35:34;100026.41;;;-0.36;100.00
63006;BME280;53704;52.532;6.426;2024-01-15T03:38:00;100025.41;;;-0.22;100.00
63006;BME280;53704;52.532;6.426;2024-01-15T03:40:25;100024.53;;;-0.23;100.00
63006;BME280;53704;52.532;6.426;2024-01-15T03:42:51;100025.97;;;-0.30;100.00
63006;BME280;53704;52.532;6.426;2024-01-15T03:45:16;100026.25;;;-0.22;100.00
63006;BME280;53704;52.532;6.426;2024-01-15T03:47:42;100034.75;;;-0.29;100.00
63006;BME280;53704;52.532;6.426;2024-01-15T03:50:07;100033.19;;;-0.21;100.00
63006;BME280;53704;52.532;6.426;2024-01-15T03:52:33;100023.56;;;-0.33;100.00
63006;BME280;53704;52.532;6.426;2024-01-15T03:54:58;100032.38;;;-0.21;100.00
63006;BME280;53704;52.532;6.426;2024-01-15T03:57:24;100035.63;;;-0.17;100.00
63006;BME280;53704;52.532;6.426;2024-01-15T03:59:49;100044.66;;;-0.20;100.00
63006;BME280;53704;52.532;6.426;2024-01-15T04:02:14;100042.69;;;-0.29;100.00
63006;BME280;53704;52.532;6.426;2024-01-15T04:04:41;100046.50;;;-0.33;100.00
63006;BME280;53704;52.532;6.426;2024-01-15T04:07:07;100048.69;;;-0.27;100.00
63006;BME280;53704;52.532;6.426;2024-01-15T04:09:32;100033.50;;;-0.37;100.00
63006;BME280;53704;52.532;6.426;2024-01-15T04:11:58;100028.44;;;-0.40;100.00
63006;BME280;53704;52.532;6.426;2024-01-15T04:14:23;100019.81;;;-0.30;100.00
63006;BME280;53704;52.532;6.426;2024-01-15T04:16:48;100016.00;;;-0.26;100.00
63006;BME280;53704;52.532;6.426;2024-01-15T04:19:14;100014.88;;;-0.35;100.00
63006;BME280;53704;52.532;6.426;2024-01-15T04:21:39;100016.19;;;-0.41;100.00
63006;BME280;53704;52.532;6.426;2024-01-15T04:24:05;100012.09;;;-0.33;100.00
63006;BME280;53704;52.532;6.426;2024-01-15T04:26:30;100015.28;;;-0.28;100.00
63006;BME280;53704;52.532;6.426;2024-01-15T04:28:56;100016.72;;;-0.24;100.00
63006;BME280;53704;52.532;6.426;2024-01-15T04:31:22;100014.81;;;-0.22;100.00
63006;BME280;53704;52.532;6.426;2024-01-15T04:33:48;100012.97;;;-0.33;100.00
63006;BME280;53704;52.532;6.426;2024-01-15T04:36:13;100009.81;;;-0.38;100.00
63006;BME280;53704;52.532;6.426;2024-01-15T04:38:39;100010.78;;;-0.39;100.00
63006;BME280;53704;52.532;6.426;2024-01-15T04:41:04;100004.63;;;-0.40;100.00
63006;BME280;53704;52.532;6.426;2024-01-15T04:43:30;99985.63;;;-0.45;100.00
63006;BME280;53704;52.532;6.426;2024-01-15T04:45:55;99982.88;;;-0.43;100.00
63006;BME280;53704;52.532;6.426;2024-01-15T04:48:20;99982.97;;;-0.45;100.00
63006;BME280;53704;52.532;6.426;2024-01-15T04:50:48;99980.47;;;-0.35;100.00
63006;BME280;53704;52.532;6.426;2024-01-15T04:53:13;99983.72;;;-0.43;100.00
63006;BME280;53704;52.532;6.426;2024-01-15T04:55:39;99983.59;;;-0.41;100.00
63006;BME280;53704;52.532;6.426;2024-01-15T04:58:04;99988.94;;;-0.54;100.00
63006;BME280;53704;52.532;6.426;2024-01-15T05:00:30;99998.56;;;-0.53;100.00
63006;BME280;53704;52.532;6.426;2024-01-15T05:02:55;100001.50;;;-0.45;100.00
63006;BME280;53704;52.532;6.426;2024-01-15T05:05:21;100010.19;;;-0.56;100.00
63006;BME280;53704;52.532;6.426;2024-01-15T05:07:46;100005.34;;;-0.49;100.00
63006;BME280;53704;52.532;6.426;2024-01-15T05:10:12;100004.41;;;-0.61;100.00
63006;BME280;53704;52.532;6.426;2024-01-15T05:12:37;99997.56;;;-0.63;100.00
63006;BME280;53704;52.532;6.426;2024-01-15T05:15:03;100001.81;;;-0.49;100.00
63006;BME280;53704;52.532;6.426;2024-01-15T05:17:29;100007.53;;;-0.43;100.00
63006;BME280;53704;52.532;6.426;2024-01-15T05:19:54;99997.72;;;-0.29;100.00
63006;BME280;53704;52.532;6.426;2024-01-15T05:22:19;99995.69;;;-0.50;100.00
63006;BME280;53704;52.532;6.426;2024-01-15T05:24:46;99993.56;;;-0.45;100.00
63006;BME280;53704;52.532;6.426;2024-01-15T05:27:11;99976.16;;;-0.36;100.00
63006;BME280;53704;52.532;6.426;2024-01-15T05:29:37;99977.53;;;-0.19;100.00
63006;BME280;53704;52.532;6.426;2024-01-15T05:32:02;99981.13;;;-0.31;100.00
63006;BME280;53704;52.532;6.426;2024-01-15T05:34:28;99970.91;;;-0.25;100.00
63006;BME280;53704;52.532;6.426;2024-01-15T05:36:53;99973.09;;;-0.19;100.00
63006;BME280;53704;52.532;6.426;2024-01-15T05:39:18;99976.09;;;-0.23;100.00
63006;BME280;53704;52.532;6.426;2024-01-15T05:41:44;99976.34;;;-0.15;100.00
63006;BME280;53704;52.532;6.426;2024-01-15T05:44:09;99970.13;;;-0.38;100.00
63006;BME280;53704;52.532;6.426;2024-01-15T05:46:35;99972.88;;;-0.15;100.00
63006;BME280;53704;52.532;6.426;2024-01-15T05:49:01;99986.91;;;-0.26;100.00
63006;BME280;53704;52.532;6.426;2024-01-15T05:51:26;99991.25;;;-0.25;100.00
63006;BME280;53704;52.532;6.426;2024-01-15T05:53:51;99992.91;;;-0.24;100.00
63006;BME280;53704;52.532;6.426;2024-01-15T05:56:17;99998.69;;;-0.19;100.00
63006;BME280;53704;52.532;6.426;2024-01-15T05:58:42;100003.69;;;-0.39;100.00
63006;BME280;53704;52.532;6.426;2024-01-15T06:01:08;99998.66;;;-0.30;100.00
63006;BME280;53704;52.532;6.426;2024-01-15T06:03:33;99999.13;;;-0.37;100.00
63006;BME280;53704;52.532;6.426;2024-01-15T06:05:58;100006.63;;;-0.55;100.00
63006;BME280;53704;52.532;6.426;2024-01-15T06:08:24;99997.41;;;-0.49;100.00
63006;BME280;53704;52.532;6.426;2024-01-15T06:10:51;99977.81;;;-0.70;100.00
63006;BME280;53704;52.532;6.426;2024-01-15T06:13:17;99959.69;;;-0.64;100.00
63006;BME280;53704;52.532;6.426;2024-01-15T06:15:42;99960.59;;;-0.52;100.00
63006;BME280;53704;52.532;6.426;2024-01-15T06:18:07;99961.50;;;-0.64;100.00
63006;BME280;53704;52.532;6.426;2024-01-15T06:20:33;99969.81;;;-0.58;100.00
63006;BME280;53704;52.532;6.426;2024-01-15T06:22:58;99956.25;;;-0.53;100.00
63006;BME280;53704;52.532;6.426;2024-01-15T06:25:24;99960.31;;;-0.60;100.00
63006;BME280;53704;52.532;6.426;2024-01-15T06:27:49;99961.50;;;-0.64;100.00
63006;BME280;53704;52.532;6.426;2024-01-15T06:30:14;99965.38;;;-0.57;100.00
63006;BME280;53704;52.532;6.426;2024-01-15T06:32:40;99962.72;;;-0.57;100.00
63006;BME280;53704;52.532;6.426;2024-01-15T06:35:06;99961.72;;;-0.67;100.00
63006;BME280;53704;52.532;6.426;2024-01-15T06:37:31;99967.50;;;-0.62;100.00
63006;BME280;53704;52.532;6.426;2024-01-15T06:39:58;99957.84;;;-0.50;100.00
63006;BME280;53704;52.532;6.426;2024-01-15T06:42:25;99957.78;;;-0.62;100.00
63006;BME280;53704;52.532;6.426;2024-01-15T06:44:50;99950.16;;;-0.53;100.00
63006;BME280;53704;52.532;6.426;2024-01-15T06:47:16;99952.09;;;-0.44;100.00
63006;BME280;53704;52.532;6.426;2024-01-15T06:49:42;99948.66;;;-0.58;100.00
63006;BME280;53704;52.532;6.426;2024-01-15T06:52:08;99939.75;;;-0.68;100.00
63006;BME280;53704;52.532;6.426;2024-01-15T06:54:33;99949.84;;;-0.62;100.00
63006;BME280;53704;52.532;6.426;2024-01-15T06:56:59;99952.84;;;-0.66;100.00
63006;BME280;53704;52.532;6.426;2024-01-15T06:59:24;99944.84;;;-0.78;100.00
63006;BME280;53704;52.532;6.426;2024-01-15T07:01:49;99945.94;;;-0.80;100.00
63006;BME280;53704;52.532;6.426;2024-01-15T07:04:15;99941.41;;;-0.67;100.00
63006;BME280;53704;52.532;6.426;2024-01-15T07:06:41;99935.19;;;-0.66;100.00
63006;BME280;53704;52.532;6.426;2024-01-15T07:09:06;99931.22;;;-0.60;100.00
63006;BME280;53704;52.532;6.426;2024-01-15T07:11:33;99927.97;;;-0.64;100.00
63006;BME280;53704;52.532;6.426;2024-01-15T07:13:58;99930.91;;;-0.80;100.00
63006;BME280;53704;52.532;6.426;2024-01-15T07:16:24;99925.34;;;-0.64;100.00
63006;BME280;53704;52.532;6.426;2024-01-15T07:18:49;99927.16;;;-0.64;100.00
63006;BME280;53704;52.532;6.426;2024-01-15T07:21:14;99928.34;;;-0.57;100.00
63006;BME280;53704;52.532;6.426;2024-01-15T07:23:40;99934.16;;;-0.76;100.00
63006;BME280;53704;52.532;6.426;2024-01-15T07:26:05;99933.25;;;-0.64;100.00
63006;BME280;53704;52.532;6.426;2024-01-15T07:28:31;99935.91;;;-0.64;100.00
63006;BME280;53704;52.532;6.426;2024-01-15T07:30:57;99939.75;;;-0.68;100.00
63006;BME280;53704;52.532;6.426;2024-01-15T07:33:22;99932.50;;;-0.77;100.00
63006;BME280;53704;52.532;6.426;2024-01-15T07:35:48;99935.38;;;-0.80;100.00
63006;BME280;53704;52.532;6.426;2024-01-15T07:38:13;99939.28;;;-0.86;100.00
63006;BME280;53704;52.532;6.426;2024-01-15T07:40:38;99939.91;;;-0.82;100.00
63006;BME280;53704;52.532;6.426;2024-01-15T07:43:04;99947.81;;;-0.69;100.00
63006;BME280;53704;52.532;6.426;2024-01-15T07:45:30;99941.53;;;-0.68;100.00
63006;BME280;53704;52.532;6.426;2024-01-15T07:47:55;99946.31;;;-0.74;100.00
63006;BME280;53704;52.532;6.426;2024-01-15T07:50:21;99958.03;;;-0.65;100.00
63006;BME280;53704;52.532;6.426;2024-01-15T07:52:46;99963.44;;;-0.66;100.00
63006;BME280;53704;52.532;6.426;2024-01-15T07:55:12;99951.59;;;-0.74;100.00
63006;BME280;53704;52.532;6.426;2024-01-15T07:57:38;99945.06;;;-0.81;100.00
63006;BME280;53704;52.532;6.426;2024-01-15T08:00:04;99937.38;;;-0.84;100.00
63006;BME280;53704;52.532;6.426;2024-01-15T08:02:34;99953.38;;;-0.85;100.00
63006;BME280;53704;52.532;6.426;2024-01-15T08:04:59;99956.72;;;-0.83;100.00
63006;BME280;53704;52.532;6.426;2024-01-15T08:07:25;99958.28;;;-0.81;100.00
63006;BME280;53704;52.532;6.426;2024-01-15T08:09:52;99956.72;;;-0.83;100.00
63006;BME280;53704;52.532;6.426;2024-01-15T08:12:17;99949.19;;;-0.77;100.00
63006;BME280;53704;52.532;6.426;2024-01-15T08:14:42;99950.72;;;-0.85;100.00
63006;BME280;53704;52.532;6.426;2024-01-15T08:17:08;99954.91;;;-0.83;100.00
63006;BME280;53704;52.532;6.426;2024-01-15T08:19:33;99949.41;;;-0.80;100.00
63006;BME280;53704;52.532;6.426;2024-01-15T08:21:59;99949.03;;;-0.86;100.00
63006;BME280;53704;52.532;6.426;2024-01-15T08:24:24;99942.44;;;-0.81;100.00
63006;BME280;53704;52.532;6.426;2024-01-15T08:26:49;99943.56;;;-0.72;100.00
63006;BME280;53704;52.532;6.426;2024-01-15T08:29:15;99946.94;;;-0.70;100.00
63006;BME280;53704;52.532;6.426;2024-01-15T08:31:41;99950.47;;;-0.58;100.00
63006;BME280;53704;52.532;6.426;2024-01-15T08:34:06;99955.03;;;-0.60;100.00
63006;BME280;53704;52.532;6.426;2024-01-15T08:36:32;99964.81;;;-0.49;100.00
63006;BME280;53704;52.532;6.426;2024-01-15T08:38:59;99952.03;;;-0.56;100.00
63006;BME280;53704;52.532;6.426;2024-01-15T08:41:25;99954.34;;;-0.51;100.00
63006;BME280;53704;52.532;6.426;2024-01-15T08:43:50;99953.50;;;-0.51;100.00
63006;BME280;53704;52.532;6.426;2024-01-15T08:46:16;99945.81;;;-0.55;100.00
63006;BME280;53704;52.532;6.426;2024-01-15T08:48:41;99947.63;;;-0.55;100.00
63006;BME280;53704;52.532;6.426;2024-01-15T08:51:07;99958.31;;;-0.57;100.00
63006;BME280;53704;52.532;6.426;2024-01-15T08:53:33;99955.53;;;-0.55;100.00
63006;BME280;53704;52.532;6.426;2024-01-15T08:55:58;99955.78;;;-0.58;100.00
63006;BME280;53704;52.532;6.426;2024-01-15T08:58:24;99949.84;;;-0.62;100.00
63006;BME280;53704;52.532;6.426;2024-01-15T09:00:49;99943.50;;;-0.59;100.00
63006;BME280;53704;52.532;6.426;2024-01-15T09:03:16;99946.72;;;-0.67;100.00
63006;BME280;53704;52.532;6.426;2024-01-15T09:05:41;99945.44;;;-0.61;100.00
63006;BME280;53704;52.532;6.426;2024-01-15T09:08:07;99947.84;;;-0.58;100.00
63006;BME280;53704;52.532;6.426;2024-01-15T09:10:33;99946.03;;;-0.58;100.00
63006;BME280;53704;52.532;6.426;2024-01-15T09:12:58;99950.41;;;-0.45;100.00
63006;BME280;53704;52.532;6.426;2024-01-15T09:15:25;99952.09;;;-0.44;100.00
63006;BME280;53704;52.532;6.426;2024-01-15T09:17:50;99942.50;;;-0.34;100.00
63006;BME280;53704;52.532;6.426;2024-01-15T09:20:16;99949.22;;;-0.41;100.00
63006;BME280;53704;52.532;6.426;2024-01-15T09:22:42;99940.78;;;-0.46;100.00
63006;BME280;53704;52.532;6.426;2024-01-15T09:25:08;99948.38;;;-0.42;100.00
63006;BME280;53704;52.532;6.426;2024-01-15T09:27:35;99947.09;;;-0.36;100.00
63006;BME280;53704;52.532;6.426;2024-01-15T09:30:02;99958.75;;;-0.27;100.00
63006;BME280;53704;52.532;6.426;2024-01-15T09:32:27;99960.63;;;-0.05;100.00
63006;BME280;53704;52.532;6.426;2024-01-15T09:34:53;99966.50;;;-0.13;100.00
63006;BME280;53704;52.532;6.426;2024-01-15T09:37:18;99964.31;;;-0.19;100.00
63006;BME280;53704;52.532;6.426;2024-01-15T09:39:44;99964.56;;;-0.22;100.00
63006;BME280;53704;52.532;6.426;2024-01-15T09:42:10;99963.19;;;-0.39;100.00
63006;BME280;53704;52.532;6.426;2024-01-15T09:44:36;99951.50;;;-0.37;100.00
63006;BME280;53704;52.532;6.426;2024-01-15T09:47:03;99958.25;;;-0.32;100.00
63006;BME280;53704;52.532;6.426;2024-01-15T09:49:29;99953.59;;;-0.29;100.00
63006;BME280;53704;52.532;6.426;2024-01-15T09:51:55;99954.94;;;-0.23;100.00
63006;BME280;53704;52.532;6.426;2024-01-15T09:54:22;99959.28;;;-0.22;100.00
63006;BME280;53704;52.532;6.426;2024-01-15T09:56:48;99955.91;;;-0.13;100.00
63006;BME280;53704;52.532;6.426;2024-01-15T09:59:18;99959.88;;;-0.19;100.00
63006;BME280;53704;52.532;6.426;2024-01-15T10:01:44;99961.38;;;-0.03;100.00
63006;BME280;53704;52.532;6.426;2024-01-15T10:04:12;99964.25;;;0.05;100.00
63006;BME280;53704;52.532;6.426;2024-01-15T10:06:38;99961.03;;;0.13;100.00
63006;BME280;53704;52.532;6.426;2024-01-15T10:09:05;99965.69;;;0.09;100.00
63006;BME280;53704;52.532;6.426;2024-01-15T10:11:30;99962.81;;;0.12;100.00
63006;BME280;53704;52.532;6.426;2024-01-15T10:13:57;99957.53;;;0.12;100.00
63006;BME280;53704;52.532;6.426;2024-01-15T10:16:22;99955.28;;;0.19;100.00
63006;BME280;53704;52.532;6.426;2024-01-15T10:18:49;99961.75;;;0.26;100.00
63006;BME280;53704;52.532;6.426;2024-01-15T10:21:14;99960.78;;;0.16;100.00
63006;BME280;53704;52.532;6.426;2024-01-15T10:23:41;99952.84;;;0.16;100.00
63006;BME280;53704;52.532;6.426;2024-01-15T10:26:06;99960.28;;;0.22;100.00
63006;BME280;53704;52.532;6.426;2024-01-15T10:28:32;99956.09;;;0.20;100.00
63006;BME280;53704;52.532;6.426;2024-01-15T10:30:58;99953.69;;;0.05;100.00
63006;BME280;53704;52.532;6.426;2024-01-15T10:33:27;99963.44;;;0.16;100.00
63006;BME280;53704;52.532;6.426;2024-01-15T10:36:00;99964.63;;;0.23;100.00
63006;BME280;53704;52.532;6.426;2024-01-15T10:38:26;99964.28;;;0.28;100.00
63006;BME280;53704;52.532;6.426;2024-01-15T10:40:55;99955.28;;;0.30;100.00
63006;BME280;53704;52.532;6.426;2024-01-15T10:43:21;99953.59;;;0.41;100.00
63006;BME280;53704;52.532;6.426;2024-01-15T10:45:48;99946.97;;;0.46;100.00
63006;BME280;53704;52.532;6.426;2024-01-15T10:48:14;99941.91;;;0.43;100.00
63006;BME280;53704;52.532;6.426;2024-01-15T10:50:41;99955.88;;;0.45;100.00
63006;BME280;53704;52.532;6.426;2024-01-15T10:53:08;99943.69;;;0.43;100.00
63006;BME280;53704;52.532;6.426;2024-01-15T10:55:35;99950.69;;;0.32;100.00
63006;BME280;53704;52.532;6.426;2024-01-15T10:58:02;99953.81;;;0.15;100.00
63006;BME280;53704;52.532;6.426;2024-01-15T11:00:29;99955.50;;;0.16;100.00
63006;BME280;53704;52.532;6.426;2024-01-15T11:02:55;99955.47;;;0.05;100.00
63006;BME280;53704;52.532;6.426;2024-01-15T11:05:21;99962.81;;;0.12;100.00
63006;BME280;53704;52.532;6.426;2024-01-15T11:07:50;99954.16;;;0.10;100.00
63006;BME280;53704;52.532;6.426;2024-01-15T11:15:56;99952.16;;;0.37;100.00
63006;BME280;53704;52.532;6.426;2024-01-15T11:18:22;99951.16;;;0.49;100.00
63006;BME280;53704;52.532;6.426;2024-01-15T11:21:19;99949.50;;;0.48;100.00
63006;BME280;53704;52.532;6.426;2024-01-15T11:26:31;99975.94;;;0.25;100.00
63006;BME280;53704;52.532;6.426;2024-01-15T11:28:58;99970.16;;;0.09;100.00
63006;BME280;53704;52.532;6.426;2024-01-15T11:34:07;99977.31;;;-0.16;100.00
63006;BME280;53704;52.532;6.426;2024-01-15T11:41:58;99959.75;;;-0.17;100.00
63006;BME280;53704;52.532;6.426;2024-01-15T11:44:25;99956.47;;;-0.21;100.00
63006;BME280;53704;52.532;6.426;2024-01-15T11:47:03;99954.75;;;0.03;100.00
63006;BME280;53704;52.532;6.426;2024-01-15T11:50:03;99962.78;;;-0.10;100.00
63006;BME280;53704;52.532;6.426;2024-01-15T11:52:37;99963.72;;;-0.11;100.00
63006;BME280;53704;52.532;6.426;2024-01-15T11:55:19;99959.66;;;-0.04;100.00
63006;BME280;53704;52.532;6.426;2024-01-15T11:57:52;99965.78;;;-0.04;100.00
63006;BME280;53704;52.532;6.426;2024-01-15T12:00:20;99957.16;;;0.06;100.00
63006;BME280;53704;52.532;6.426;2024-01-15T12:02:47;99956.66;;;-0.11;100.00
63006;BME280;53704;52.532;6.426;2024-01-15T12:05:16;99952.78;;;-0.18;100.00
63006;BME280;53704;52.532;6.426;2024-01-15T12:07:43;99964.63;;;0.01;100.00
63006;BME280;53704;52.532;6.426;2024-01-15T12:10:19;99966.56;;;0.21;100.00
63006;BME280;53704;52.532;6.426;2024-01-15T12:13:11;99978.00;;;0.22;100.00
63006;BME280;53704;52.532;6.426;2024-01-15T12:15:37;99961.28;;;0.32;100.00
63006;BME280;53704;52.532;6.426;2024-01-15T12:18:07;99969.47;;;0.41;100.00
63006;BME280;53704;52.532;6.426;2024-01-15T12:20:33;99960.81;;;0.39;100.00
63006;BME280;53704;52.532;6.426;2024-01-15T12:23:00;99971.03;;;0.54;100.00
63006;BME280;53704;52.532;6.426;2024-01-15T12:25:26;99977.91;;;0.68;100.00
63006;BME280;53704;52.532;6.426;2024-01-15T12:27:54;99980.91;;;0.52;100.00
63006;BME280;53704;52.532;6.426;2024-01-15T12:30:20;99978.97;;;0.66;100.00
63006;BME280;53704;52.532;6.426;2024-01-15T12:32:45;99986.81;;;0.67;100.00
63006;BME280;53704;52.532;6.426;2024-01-15T12:35:14;99978.13;;;0.88;100.00
63006;BME280;53704;52.532;6.426;2024-01-15T12:37:40;99998.84;;;0.83;100.00
63006;BME280;53704;52.532;6.426;2024-01-15T12:40:08;99995.72;;;0.78;100.00
63006;BME280;53704;52.532;6.426;2024-01-15T12:42:43;100004.28;;;0.70;100.00
63006;BME280;53704;52.532;6.426;2024-01-15T12:45:11;100015.22;;;0.54;100.00
63006;BME280;53704;52.532;6.426;2024-01-15T12:47:37;100037.56;;;0.16;100.00
63006;BME280;53704;52.532;6.426;2024-01-15T12:50:05;100026.44;;;-0.01;100.00
63006;BME280;53704;52.532;6.426;2024-01-15T12:52:32;100029.66;;;-0.08;100.00
63006;BME280;53704;52.532;6.426;2024-01-15T12:54:57;100026.53;;;-0.02;100.00
63006;BME280;53704;52.532;6.426;2024-01-15T12:57:23;100032.59;;;0.00;100.00
63006;BME280;53704;52.532;6.426;2024-01-15T12:59:49;100034.81;;;-0.07;100.00
63006;BME280;53704;52.532;6.426;2024-01-15T13:02:15;100035.22;;;0.00;100.00